Time;durP1;ratioP1;P1;durP2;ratioP2;P2;SDS_P1;SDS_P2;PMS_P1;PMS_P2;Temp;Humidity;BMP_temperature;BMP_pressure;BME280_temperature;BME280_humidity;BME280_pressure;Samples;Min_cycle;Max_cycle;Signal;HPM_P1;HPM_P2
2023/05/08 00:00:34;;;;;;;31.83;27.02;;;;;;;;;;5081688;28;20461;-57
2023/05/08 00:03:02;;;;;;;33.08;27.63;;;;;;;;;;5083544;28;20828;-59
2023/05/08 00:05:29;;;;;;;31.17;26.30;;;;;;;;;;5083077;28;20428;-59
2023/05/08 00:08:00;;;;;;;33.13;26.15;;;;;;;;;;5073420;28;20453;-59
2023/05/08 00:10:27;;;;;;;29.48;24.95;;;;;;;;;;5080078;28;20443;-60
2023/05/08 00:12:55;;;;;;;30.33;25.58;;;;;;;;;;5083829;28;20467;-58
2023/05/08 00:15:23;;;;;;;31.25;26.35;;;;;;;;;;5081781;28;20415;-59
2023/05/08 00:17:50;;;;;;;30.75;26.77;;;;;;;;;;5079837;28;20415;-60
2023/05/08 00:20:17;;;;;;;32.10;26.88;;;;;;;;;;5083394;28;20406;-60
2023/05/08 00:22:44;;;;;;;29.95;25.30;;;;;;;;;;5078617;28;20477;-60
2023/05/08 00:25:11;;;;;;;33.22;28.25;;;;;;;;;;5083417;28;20410;-59
2023/05/08 00:27:38;;;;;;;32.80;27.25;;;;;;;;;;5081609;28;20453;-59
2023/05/08 00:30:07;;;;;;;35.22;27.92;;;;;;;;;;5080517;28;20469;-58
2023/05/08 00:32:34;;;;;;;34.13;27.70;;;;;;;;;;5082341;28;21026;-58
2023/05/08 00:35:01;;;;;;;36.38;27.98;;;;;;;;;;5083113;28;20519;-59
2023/05/08 00:37:29;;;;;;;34.53;28.80;;;;;;;;;;5077302;28;20863;-59
2023/05/08 00:39:56;;;;;;;34.50;27.40;;;;;;;;;;5078462;28;20471;-58
2023/05/08 00:42:23;;;;;;;30.73;26.60;;;;;;;;;;5080534;28;20423;-59
2023/05/08 00:44:50;;;;;;;32.00;26.50;;;;;;;;;;5082206;28;20471;-58
2023/05/08 00:47:18;;;;;;;30.67;25.55;;;;;;;;;;5083073;28;21051;-59
2023/05/08 00:49:45;;;;;;;28.25;24.38;;;;;;;;;;5077632;28;20407;-59
2023/05/08 00:52:12;;;;;;;27.57;24.30;;;;;;;;;;5076889;28;20803;-59
2023/05/08 00:54:40;;;;;;;28.30;24.58;;;;;;;;;;5080636;28;20496;-59
2023/05/08 00:57:08;;;;;;;27.38;23.38;;;;;;;;;;5081109;28;20482;-60
2023/05/08 00:59:36;;;;;;;29.98;25.23;;;;;;;;;;5080353;28;20473;-59
2023/05/08 01:02:03;;;;;;;29.75;25.77;;;;;;;;;;5076562;28;20783;-59
2023/05/08 01:04:32;;;;;;;30.00;25.63;;;;;;;;;;5080231;28;20803;-60
2023/05/08 01:06:59;;;;;;;33.38;26.83;;;;;;;;;;5072467;28;20469;-59
2023/05/08 01:09:26;;;;;;;32.67;26.60;;;;;;;;;;5079860;28;20915;-58
2023/05/08 01:11:59;;;;;;;31.25;26.02;;;;;;;;;;5082332;28;20570;-58
2023/05/08 01:14:37;;;;;;;30.13;25.05;;;;;;;;;;5083838;28;20405;-59
2023/05/08 01:17:10;;;;;;;27.80;24.13;;;;;;;;;;5079284;28;20428;-59
2023/05/08 01:19:56;;;;;;;27.87;23.63;;;;;;;;;;5076416;28;20407;-59
2023/05/08 01:22:30;;;;;;;26.65;23.73;;;;;;;;;;5073201;28;20481;-61
2023/05/08 01:25:15;;;;;;;26.50;23.40;;;;;;;;;;5079955;28;20453;-59
2023/05/08 01:28:01;;;;;;;27.83;23.50;;;;;;;;;;5076836;28;20415;-59
2023/05/08 01:30:39;;;;;;;28.10;24.25;;;;;;;;;;5082380;28;20437;-58
2023/05/08 01:33:11;;;;;;;26.95;23.33;;;;;;;;;;5079675;28;20409;-59
2023/05/08 01:35:43;;;;;;;27.35;23.25;;;;;;;;;;5081513;28;20494;-60
2023/05/08 01:38:14;;;;;;;26.75;22.52;;;;;;;;;;5077543;28;20435;-59
2023/05/08 01:40:45;;;;;;;26.15;22.83;;;;;;;;;;5082124;28;20453;-59
2023/05/08 01:43:14;;;;;;;26.02;23.23;;;;;;;;;;5074877;28;20504;-60
2023/05/08 01:45:45;;;;;;;28.30;23.88;;;;;;;;;;5081832;28;20499;-59
2023/05/08 01:48:17;;;;;;;28.50;24.35;;;;;;;;;;5069888;28;20413;-59
2023/05/08 01:50:46;;;;;;;28.80;24.67;;;;;;;;;;5078527;28;20459;-59
2023/05/08 01:53:17;;;;;;;30.05;24.67;;;;;;;;;;5078715;28;20477;-60
2023/05/08 01:55:44;;;;;;;28.57;24.63;;;;;;;;;;5082160;28;20579;-60
2023/05/08 01:58:12;;;;;;;30.60;25.40;;;;;;;;;;5079692;28;20473;-60
2023/05/08 02:00:40;;;;;;;29.35;25.42;;;;;;;;;;5080069;28;20412;-59
2023/05/08 02:03:08;;;;;;;29.98;25.27;;;;;;;;;;5073505;28;20448;-60
2023/05/08 02:05:37;;;;;;;31.27;26.42;;;;;;;;;;5078291;28;20408;-60
2023/05/08 02:08:04;;;;;;;32.88;26.65;;;;;;;;;;5080287;28;20412;-59
2023/05/08 02:10:32;;;;;;;31.85;26.80;;;;;;;;;;5078289;28;20775;-60
2023/05/08 02:13:00;;;;;;;30.73;26.50;;;;;;;;;;5081419;28;20879;-60
2023/05/08 02:15:28;;;;;;;34.10;28.27;;;;;;;;;;5080177;28;20477;-58
2023/05/08 02:17:56;;;;;;;29.75;25.10;;;;;;;;;;5072456;28;20458;-59
2023/05/08 02:20:23;;;;;;;32.20;26.38;;;;;;;;;;5081288;28;20414;-59
2023/05/08 02:22:52;;;;;;;31.92;26.58;;;;;;;;;;5077427;28;20417;-59
2023/05/08 02:25:19;;;;;;;27.35;24.13;;;;;;;;;;5075563;28;20411;-59
2023/05/08 02:27:48;;;;;;;29.73;25.33;;;;;;;;;;5079786;28;20459;-58
2023/05/08 02:30:15;;;;;;;30.38;24.38;;;;;;;;;;5081760;28;20856;-59
2023/05/08 02:32:43;;;;;;;28.05;25.05;;;;;;;;;;5077527;28;20412;-58
2023/05/08 02:35:11;;;;;;;29.48;24.73;;;;;;;;;;5081736;28;20449;-60
2023/05/08 02:37:38;;;;;;;28.92;24.17;;;;;;;;;;5076563;28;20416;-60
2023/05/08 02:40:09;;;;;;;31.60;25.00;;;;;;;;;;5079855;28;20900;-57
2023/05/08 02:42:36;;;;;;;28.65;25.27;;;;;;;;;;5081880;28;20423;-60
2023/05/08 02:45:03;;;;;;;29.23;25.05;;;;;;;;;;5083567;28;20474;-60
2023/05/08 02:47:34;;;;;;;29.67;25.50;;;;;;;;;;5082741;28;20418;-61
2023/05/08 02:50:05;;;;;;;30.25;26.88;;;;;;;;;;5085008;28;20432;-60
2023/05/08 02:52:33;;;;;;;33.25;26.75;;;;;;;;;;5085217;28;20402;-60
2023/05/08 02:55:02;;;;;;;29.92;25.75;;;;;;;;;;5079047;28;20408;-58
2023/05/08 02:57:36;;;;;;;29.45;24.45;;;;;;;;;;5082550;28;20411;-59
2023/05/08 03:00:05;;;;;;;27.52;24.13;;;;;;;;;;5081911;28;20447;-59
2023/05/08 03:02:35;;;;;;;27.67;24.40;;;;;;;;;;5079902;28;20839;-59
2023/05/08 03:05:04;;;;;;;26.83;23.00;;;;;;;;;;5082674;28;20407;-60
2023/05/08 03:07:33;;;;;;;29.60;24.65;;;;;;;;;;5077254;28;20505;-60
2023/05/08 03:10:03;;;;;;;27.98;24.98;;;;;;;;;;5082614;28;21499;-59
2023/05/08 03:12:31;;;;;;;30.97;25.83;;;;;;;;;;5082674;28;20412;-59
2023/05/08 03:15:04;;;;;;;32.67;25.92;;;;;;;;;;5082762;28;20488;-58
2023/05/08 03:17:32;;;;;;;31.00;25.73;;;;;;;;;;5076927;28;20828;-59
2023/05/08 03:20:02;;;;;;;32.00;26.40;;;;;;;;;;5084673;28;20406;-59
2023/05/08 03:22:30;;;;;;;30.70;24.88;;;;;;;;;;5077092;28;20425;-59
2023/05/08 03:24:59;;;;;;;29.17;25.27;;;;;;;;;;5084224;28;20888;-60
2023/05/08 03:27:29;;;;;;;27.33;23.70;;;;;;;;;;5078782;28;20477;-60
2023/05/08 03:29:57;;;;;;;27.27;23.60;;;;;;;;;;5082431;28;20450;-60
2023/05/08 03:32:26;;;;;;;26.85;23.45;;;;;;;;;;5076545;28;20517;-59
2023/05/08 03:34:54;;;;;;;27.40;23.88;;;;;;;;;;5084078;28;20511;-59
2023/05/08 03:37:21;;;;;;;26.70;23.85;;;;;;;;;;5077125;28;20419;-57
2023/05/08 03:39:48;;;;;;;31.13;25.25;;;;;;;;;;5081662;28;20762;-59
2023/05/08 03:42:20;;;;;;;29.52;24.77;;;;;;;;;;5081459;28;20471;-59
2023/05/08 03:44:47;;;;;;;33.38;26.35;;;;;;;;;;5083336;28;20430;-58
2023/05/08 03:47:15;;;;;;;36.10;27.25;;;;;;;;;;5081738;28;20471;-60
2023/05/08 03:49:43;;;;;;;35.53;26.98;;;;;;;;;;5082617;28;20407;-59
2023/05/08 03:52:10;;;;;;;32.58;26.45;;;;;;;;;;5080653;28;20818;-59
2023/05/08 03:54:37;;;;;;;33.83;26.70;;;;;;;;;;5078944;28;20504;-59
2023/05/08 03:57:05;;;;;;;33.92;26.10;;;;;;;;;;5072797;28;20938;-59
2023/05/08 03:59:39;;;;;;;29.42;24.45;;;;;;;;;;5082832;28;20420;-59
2023/05/08 04:02:13;;;;;;;31.23;26.17;;;;;;;;;;5076797;28;20845;-57
2023/05/08 04:04:41;;;;;;;33.53;26.73;;;;;;;;;;5078762;28;20429;-59
2023/05/08 04:07:12;;;;;;;38.17;28.88;;;;;;;;;;5081123;28;20422;-58
2023/05/08 04:09:43;;;;;;;33.47;26.25;;;;;;;;;;5081927;28;20842;-59
2023/05/08 04:12:20;;;;;;;33.40;27.02;;;;;;;;;;5081838;28;20410;-60
2023/05/08 04:14:50;;;;;;;29.73;25.70;;;;;;;;;;5083350;28;20413;-60
2023/05/08 04:17:21;;;;;;;28.65;24.13;;;;;;;;;;5073212;28;20473;-59
2023/05/08 04:19:52;;;;;;;28.40;23.58;;;;;;;;;;5081491;28;20411;-59
2023/05/08 04:22:22;;;;;;;29.10;23.77;;;;;;;;;;5074024;28;20806;-60
2023/05/08 04:24:50;;;;;;;29.50;23.33;;;;;;;;;;5080019;28;20864;-60
2023/05/08 04:27:17;;;;;;;31.42;23.45;;;;;;;;;;5081087;28;20438;-59
2023/05/08 04:29:44;;;;;;;33.90;25.92;;;;;;;;;;5081074;28;20412;-60
2023/05/08 04:32:11;;;;;;;31.55;24.33;;;;;;;;;;5079956;28;20450;-60
2023/05/08 04:34:38;;;;;;;29.00;22.67;;;;;;;;;;5081680;28;20410;-58
2023/05/08 04:37:07;;;;;;;25.50;21.50;;;;;;;;;;5081744;28;20467;-59
2023/05/08 04:39:35;;;;;;;27.08;21.17;;;;;;;;;;5079501;28;20447;-59
2023/05/08 04:42:02;;;;;;;25.40;21.40;;;;;;;;;;5082678;28;20416;-65
2023/05/08 04:44:29;;;;;;;25.27;20.63;;;;;;;;;;5077541;28;20455;-58
2023/05/08 04:46:56;;;;;;;26.00;22.45;;;;;;;;;;5077614;28;20424;-59
2023/05/08 04:49:23;;;;;;;25.60;21.85;;;;;;;;;;5079485;28;20944;-58
2023/05/08 04:51:50;;;;;;;26.98;21.45;;;;;;;;;;5077468;28;20419;-58
2023/05/08 04:54:17;;;;;;;23.90;21.38;;;;;;;;;;5078920;28;20406;-58
2023/05/08 04:56:45;;;;;;;23.95;20.40;;;;;;;;;;5079676;28;20469;-58
2023/05/08 04:59:12;;;;;;;22.98;19.95;;;;;;;;;;5080583;28;20452;-59
2023/05/08 05:01:39;;;;;;;26.63;21.42;;;;;;;;;;5069327;28;20935;-59
2023/05/08 05:04:06;;;;;;;26.55;21.85;;;;;;;;;;5080849;28;20421;-59
2023/05/08 05:06:33;;;;;;;27.83;22.85;;;;;;;;;;5077094;28;20500;-63
2023/05/08 05:09:00;;;;;;;27.83;22.67;;;;;;;;;;5080190;28;20469;-58
2023/05/08 05:11:27;;;;;;;26.02;22.38;;;;;;;;;;5067726;28;20417;-60
2023/05/08 05:13:56;;;;;;;26.98;22.27;;;;;;;;;;5076140;28;20406;-63
2023/05/08 05:16:22;;;;;;;25.88;22.10;;;;;;;;;;5079881;28;21088;-60
2023/05/08 05:18:49;;;;;;;27.13;22.52;;;;;;;;;;5081365;28;20418;-61
2023/05/08 05:21:16;;;;;;;26.25;22.42;;;;;;;;;;5077681;28;20414;-58
2023/05/08 05:23:43;;;;;;;27.30;22.30;;;;;;;;;;5072369;28;20472;-57
2023/05/08 05:26:11;;;;;;;27.10;22.40;;;;;;;;;;5080867;28;20949;-58
2023/05/08 05:28:38;;;;;;;26.63;22.45;;;;;;;;;;5078048;28;20481;-59
2023/05/08 05:31:06;;;;;;;28.65;23.58;;;;;;;;;;5079437;28;20412;-60
2023/05/08 05:33:33;;;;;;;27.38;23.00;;;;;;;;;;5080835;28;21333;-66
2023/05/08 05:36:01;;;;;;;25.42;21.85;;;;;;;;;;5079947;28;20414;-67
2023/05/08 05:38:28;;;;;;;22.30;19.90;;;;;;;;;;5074321;28;20428;-68
2023/05/08 05:40:55;;;;;;;22.33;19.80;;;;;;;;;;5081589;28;20425;-68
2023/05/08 05:43:22;;;;;;;25.73;20.90;;;;;;;;;;5077945;28;20453;-69
2023/05/08 05:45:49;;;;;;;23.65;19.58;;;;;;;;;;5079287;28;20413;-67
2023/05/08 05:48:17;;;;;;;20.90;18.03;;;;;;;;;;5075607;28;20895;-65
2023/05/08 05:50:44;;;;;;;21.60;18.55;;;;;;;;;;5080116;28;20423;-66
2023/05/08 05:53:11;;;;;;;23.30;20.13;;;;;;;;;;5078046;28;20475;-67
2023/05/08 05:55:38;;;;;;;24.90;20.60;;;;;;;;;;5079015;28;20447;-65
2023/05/08 05:58:05;;;;;;;44.30;21.15;;;;;;;;;;5078530;28;20410;-66
2023/05/08 06:00:32;;;;;;;20.40;16.92;;;;;;;;;;5071466;28;20420;-66
2023/05/08 06:03:01;;;;;;;20.90;16.83;;;;;;;;;;5079716;28;20453;-67
2023/05/08 06:05:29;;;;;;;17.20;15.18;;;;;;;;;;5081168;28;20452;-64
2023/05/08 06:07:56;;;;;;;13.68;11.07;;;;;;;;;;5076248;28;20476;-65
2023/05/08 06:10:23;;;;;;;14.85;10.95;;;;;;;;;;5076687;28;20513;-63
2023/05/08 06:12:50;;;;;;;26.60;10.63;;;;;;;;;;5079842;28;20878;-63
2023/05/08 06:15:17;;;;;;;18.55;8.80;;;;;;;;;;5077573;28;20467;-66
2023/05/08 06:17:44;;;;;;;10.73;8.65;;;;;;;;;;5080892;28;20418;-65
2023/05/08 06:20:11;;;;;;;56.88;15.25;;;;;;;;;;5083289;28;20411;-65
2023/05/08 06:22:40;;;;;;;30.70;11.27;;;;;;;;;;5080295;28;20445;-65
2023/05/08 06:25:08;;;;;;;9.30;8.30;;;;;;;;;;5084387;28;20409;-65
2023/05/08 06:27:35;;;;;;;9.55;8.10;;;;;;;;;;5080157;28;20430;-66
2023/05/08 06:30:03;;;;;;;8.68;7.68;;;;;;;;;;5079766;28;20406;-67
2023/05/08 06:32:30;;;;;;;9.32;7.80;;;;;;;;;;5080510;28;20426;-67
2023/05/08 06:34:57;;;;;;;9.27;8.27;;;;;;;;;;5085044;28;20406;-66
2023/05/08 06:37:24;;;;;;;10.95;8.93;;;;;;;;;;5080558;28;20421;-67
2023/05/08 06:39:52;;;;;;;10.07;8.52;;;;;;;;;;5084754;28;20417;-68
2023/05/08 06:42:19;;;;;;;9.80;8.83;;;;;;;;;;5081311;28;20468;-66
2023/05/08 06:44:47;;;;;;;10.35;9.30;;;;;;;;;;5079429;28;20798;-67
2023/05/08 06:47:14;;;;;;;26.77;10.98;;;;;;;;;;5079849;28;21026;-65
2023/05/08 06:49:41;;;;;;;11.75;9.63;;;;;;;;;;5078421;28;20417;-64
2023/05/08 06:52:08;;;;;;;10.87;9.40;;;;;;;;;;5080506;28;20481;-65
2023/05/08 06:54:34;;;;;;;10.98;9.70;;;;;;;;;;5083558;28;20939;-64
2023/05/08 06:57:03;;;;;;;11.57;10.18;;;;;;;;;;5084137;28;20413;-65
2023/05/08 06:59:30;;;;;;;14.25;10.88;;;;;;;;;;5078839;28;20415;-64
2023/05/08 07:01:58;;;;;;;11.07;9.65;;;;;;;;;;5076324;28;20485;-61
2023/05/08 07:04:25;;;;;;;11.25;9.68;;;;;;;;;;5071545;28;20493;-61
2023/05/08 07:06:52;;;;;;;9.73;8.83;;;;;;;;;;5082020;28;20510;-61
2023/05/08 07:09:19;;;;;;;12.25;9.75;;;;;;;;;;5080009;28;20469;-61
2023/05/08 07:11:46;;;;;;;11.33;10.17;;;;;;;;;;5083465;28;20411;-61
2023/05/08 07:14:15;;;;;;;10.32;9.32;;;;;;;;;;5076712;28;20423;-61
2023/05/08 07:16:42;;;;;;;11.05;9.88;;;;;;;;;;5078771;28;20424;-61
2023/05/08 07:19:09;;;;;;;11.25;9.15;;;;;;;;;;5082205;28;20421;-62
2023/05/08 07:21:37;;;;;;;11.00;9.43;;;;;;;;;;5080168;28;20426;-62
2023/05/08 07:24:04;;;;;;;10.30;9.27;;;;;;;;;;5082421;28;20473;-59
2023/05/08 07:26:31;;;;;;;8.87;7.80;;;;;;;;;;5080754;28;20426;-60
2023/05/08 07:28:58;;;;;;;10.75;8.27;;;;;;;;;;5082914;28;20414;-61
2023/05/08 07:31:27;;;;;;;8.90;8.00;;;;;;;;;;5079209;28;20420;-63
2023/05/08 07:33:54;;;;;;;8.23;7.43;;;;;;;;;;5083754;28;20402;-64
2023/05/08 07:36:21;;;;;;;8.65;7.63;;;;;;;;;;5080531;28;20473;-59
2023/05/08 07:38:49;;;;;;;9.23;7.82;;;;;;;;;;5077622;28;20451;-59
2023/05/08 07:41:16;;;;;;;8.75;7.70;;;;;;;;;;5082749;28;20410;-61
2023/05/08 07:43:44;;;;;;;8.70;7.55;;;;;;;;;;5083449;28;20425;-62
2023/05/08 07:46:16;;;;;;;8.18;7.38;;;;;;;;;;5077459;28;20411;-62
2023/05/08 07:48:44;;;;;;;9.18;7.40;;;;;;;;;;5074513;28;20473;-62
2023/05/08 07:51:11;;;;;;;10.00;7.60;;;;;;;;;;5083748;28;20475;-62
2023/05/08 07:53:38;;;;;;;8.43;7.40;;;;;;;;;;5078461;28;20411;-62
2023/05/08 07:56:06;;;;;;;8.43;7.22;;;;;;;;;;5083209;28;20410;-61
2023/05/08 07:58:33;;;;;;;8.40;6.65;;;;;;;;;;5081952;28;20465;-63
2023/05/08 08:01:00;;;;;;;7.90;6.43;;;;;;;;;;5075866;28;20423;-62
2023/05/08 08:03:27;;;;;;;7.63;5.87;;;;;;;;;;5081246;28;20411;-63
2023/05/08 08:05:56;;;;;;;7.88;6.05;;;;;;;;;;5080587;28;20481;-61
2023/05/08 08:08:23;;;;;;;6.40;5.80;;;;;;;;;;5076299;28;20812;-61
2023/05/08 08:10:50;;;;;;;6.43;5.82;;;;;;;;;;5080762;28;20444;-62
2023/05/08 08:13:17;;;;;;;7.00;6.30;;;;;;;;;;5080394;28;20420;-61
2023/05/08 08:15:44;;;;;;;7.72;6.95;;;;;;;;;;5081630;28;20808;-61
2023/05/08 08:18:11;;;;;;;7.25;6.55;;;;;;;;;;5079413;28;20479;-63
2023/05/08 08:20:39;;;;;;;7.45;5.82;;;;;;;;;;5077528;28;20420;-62
2023/05/08 08:23:07;;;;;;;6.28;5.68;;;;;;;;;;5081226;28;20463;-63
2023/05/08 08:25:34;;;;;;;6.53;5.90;;;;;;;;;;5080468;28;20431;-66
2023/05/08 08:28:01;;;;;;;7.72;5.90;;;;;;;;;;5080411;28;20411;-62
2023/05/08 08:30:28;;;;;;;6.47;5.80;;;;;;;;;;5082732;28;20414;-62
2023/05/08 08:32:55;;;;;;;6.30;5.70;;;;;;;;;;5077394;28;20421;-62
2023/05/08 08:35:27;;;;;;;6.38;5.53;;;;;;;;;;5081570;28;20463;-62
2023/05/08 08:37:54;;;;;;;7.00;6.30;;;;;;;;;;5074782;28;20518;-62
2023/05/08 08:40:23;;;;;;;6.50;5.82;;;;;;;;;;5078622;28;20411;-62
2023/05/08 08:42:50;;;;;;;7.03;6.22;;;;;;;;;;5077026;28;20767;-64
2023/05/08 08:45:17;;;;;;;6.50;5.90;;;;;;;;;;5079888;28;20834;-63
2023/05/08 08:47:45;;;;;;;7.15;6.10;;;;;;;;;;5073043;28;20419;-61
2023/05/08 08:50:13;;;;;;;8.80;6.30;;;;;;;;;;5073670;28;20807;-62
2023/05/08 08:52:43;;;;;;;7.03;6.32;;;;;;;;;;5077013;28;20415;-63
2023/05/08 08:55:11;;;;;;;9.90;5.32;;;;;;;;;;5080967;28;20409;-63
2023/05/08 08:57:45;;;;;;;6.93;6.22;;;;;;;;;;5081770;28;20401;-62
2023/05/08 09:00:12;;;;;;;6.57;5.82;;;;;;;;;;5077180;28;20476;-63
2023/05/08 09:02:39;;;;;;;7.13;6.00;;;;;;;;;;5081170;28;20410;-63
2023/05/08 09:05:07;;;;;;;7.22;6.53;;;;;;;;;;5080766;28;20473;-62
2023/05/08 09:07:34;;;;;;;7.25;6.55;;;;;;;;;;5078430;28;20889;-62
2023/05/08 09:10:01;;;;;;;8.07;6.35;;;;;;;;;;5076583;28;20409;-60
2023/05/08 09:12:29;;;;;;;9.48;6.15;;;;;;;;;;5077442;28;20485;-62
2023/05/08 09:14:57;;;;;;;7.68;6.28;;;;;;;;;;5081160;28;20406;-62
2023/05/08 09:17:24;;;;;;;6.40;5.80;;;;;;;;;;5077108;28;20429;-63
2023/05/08 09:19:52;;;;;;;6.40;5.80;;;;;;;;;;5078817;28;20416;-63
2023/05/08 09:22:18;;;;;;;6.47;5.88;;;;;;;;;;5076124;28;20478;-63
2023/05/08 09:24:55;;;;;;;6.82;6.22;;;;;;;;;;5081764;28;20426;-60
2023/05/08 09:27:22;;;;;;;7.55;6.38;;;;;;;;;;5077857;28;20899;-63
2023/05/08 09:30:01;;;;;;;7.88;6.43;;;;;;;;;;5078648;28;20501;-63
2023/05/08 09:32:28;;;;;;;6.55;5.93;;;;;;;;;;5078350;28;20443;-62
2023/05/08 09:34:55;;;;;;;6.37;5.53;;;;;;;;;;5072085;28;20468;-61
2023/05/08 09:37:22;;;;;;;6.72;5.40;;;;;;;;;;5078634;28;20419;-64
2023/05/08 09:39:49;;;;;;;7.53;5.22;;;;;;;;;;5079026;28;20469;-63
2023/05/08 09:42:16;;;;;;;5.28;4.75;;;;;;;;;;5080057;28;20856;-63
2023/05/08 09:44:44;;;;;;;6.85;5.40;;;;;;;;;;5081788;28;20421;-62
2023/05/08 09:47:13;;;;;;;7.57;5.93;;;;;;;;;;5074115;28;20426;-63
2023/05/08 09:49:40;;;;;;;8.03;7.23;;;;;;;;;;5081257;28;20493;-65
2023/05/08 09:52:07;;;;;;;9.75;7.57;;;;;;;;;;5076455;28;20418;-62
2023/05/08 09:54:34;;;;;;;7.47;5.80;;;;;;;;;;5068881;28;20595;-62
2023/05/08 09:57:01;;;;;;;7.80;6.25;;;;;;;;;;5069902;28;20450;-60
2023/05/08 09:59:30;;;;;;;6.70;5.50;;;;;;;;;;5076211;28;20412;-62
2023/05/08 10:01:57;;;;;;;5.95;5.45;;;;;;;;;;5078525;28;20826;-63
2023/05/08 10:04:34;;;;;;;8.35;5.40;;;;;;;;;;5075020;28;20434;-63
2023/05/08 10:07:01;;;;;;;5.10;4.53;;;;;;;;;;5077238;28;20419;-62
2023/05/08 10:09:28;;;;;;;4.88;4.38;;;;;;;;;;5079957;28;20406;-62
2023/05/08 10:11:56;;;;;;;4.90;4.50;;;;;;;;;;5078255;28;20410;-61
2023/05/08 10:14:24;;;;;;;7.03;4.35;;;;;;;;;;5077588;28;20970;-61
2023/05/08 10:16:52;;;;;;;5.72;4.70;;;;;;;;;;5073249;28;20444;-60
2023/05/08 10:19:20;;;;;;;5.65;4.45;;;;;;;;;;5073812;28;20497;-61
2023/05/08 10:21:50;;;;;;;5.20;4.50;;;;;;;;;;5072610;28;20420;-61
2023/05/08 10:24:18;;;;;;;4.68;4.15;;;;;;;;;;5079168;28;20415;-61
2023/05/08 10:26:49;;;;;;;5.70;4.13;;;;;;;;;;5079939;28;20802;-62
2023/05/08 10:29:18;;;;;;;4.80;4.00;;;;;;;;;;5078055;28;20415;-61
2023/05/08 10:31:47;;;;;;;5.57;3.90;;;;;;;;;;5078857;28;20518;-60
2023/05/08 10:34:15;;;;;;;6.50;4.30;;;;;;;;;;5080065;28;20436;-61
2023/05/08 10:36:42;;;;;;;7.68;4.53;;;;;;;;;;5076867;28;20425;-61
2023/05/08 10:39:12;;;;;;;4.30;3.90;;;;;;;;;;5075081;28;20419;-60
2023/05/08 10:41:39;;;;;;;5.78;4.13;;;;;;;;;;5083164;28;20423;-61
2023/05/08 10:44:07;;;;;;;5.90;4.55;;;;;;;;;;5083588;28;20413;-66
2023/05/08 10:46:40;;;;;;;5.40;4.90;;;;;;;;;;5076999;28;20457;-61
2023/05/08 10:49:20;;;;;;;5.90;5.30;;;;;;;;;;5078100;28;20460;-63
2023/05/08 10:51:51;;;;;;;4.80;4.30;;;;;;;;;;5075768;28;20423;-63
2023/05/08 10:54:24;;;;;;;5.35;4.18;;;;;;;;;;5079225;28;20451;-62
2023/05/08 10:56:51;;;;;;;5.05;4.25;;;;;;;;;;5080109;28;20410;-62
2023/05/08 10:59:19;;;;;;;4.97;4.13;;;;;;;;;;5079258;28;20485;-63
2023/05/08 11:01:48;;;;;;;6.32;4.40;;;;;;;;;;5075563;28;20436;-63
2023/05/08 11:04:22;;;;;;;4.65;4.20;;;;;;;;;;5072933;28;20416;-61
2023/05/08 11:06:51;;;;;;;5.03;3.50;;;;;;;;;;5078790;28;20419;-69
2023/05/08 11:09:23;;;;;;;4.70;3.45;;;;;;;;;;5079347;28;20418;-65
2023/05/08 11:11:55;;;;;;;4.25;3.50;;;;;;;;;;5081319;28;20442;-67
2023/05/08 11:14:23;;;;;;;4.80;4.00;;;;;;;;;;5082002;28;20923;-65
2023/05/08 11:17:06;;;;;;;4.40;3.33;;;;;;;;;;5076002;28;20478;-65
2023/05/08 11:19:33;;;;;;;3.40;3.10;;;;;;;;;;5084069;28;20471;-65
2023/05/08 11:22:13;;;;;;;4.13;3.10;;;;;;;;;;5080727;28;20411;-66
2023/05/08 11:24:47;;;;;;;3.80;2.97;;;;;;;;;;5076234;28;20433;-66
2023/05/08 11:27:14;;;;;;;3.53;2.95;;;;;;;;;;5080465;28;20417;-67
2023/05/08 11:29:43;;;;;;;3.35;2.90;;;;;;;;;;5082780;28;20441;-66
2023/05/08 11:32:10;;;;;;;3.75;3.20;;;;;;;;;;5079227;28;20423;-66
2023/05/08 11:34:48;;;;;;;6.78;4.18;;;;;;;;;;5081559;28;20415;-65
2023/05/08 11:37:18;;;;;;;3.10;2.75;;;;;;;;;;5078714;28;20582;-66
2023/05/08 11:39:47;;;;;;;4.32;3.22;;;;;;;;;;5081037;28;20409;-65
2023/05/08 11:42:32;;;;;;;3.53;2.88;;;;;;;;;;5078070;28;20487;-66
2023/05/08 11:45:04;;;;;;;3.90;2.90;;;;;;;;;;5077181;28;20783;-67
2023/05/08 11:47:35;;;;;;;3.50;3.13;;;;;;;;;;5079593;28;20425;-66
2023/05/08 11:50:02;;;;;;;3.08;2.78;;;;;;;;;;5076499;28;20494;-66
2023/05/08 11:52:29;;;;;;;3.30;2.90;;;;;;;;;;5076668;28;20469;-66
2023/05/08 11:55:01;;;;;;;5.45;3.00;;;;;;;;;;5076712;28;20415;-67
2023/05/08 11:57:30;;;;;;;5.25;3.20;;;;;;;;;;5081127;28;20490;-65
2023/05/08 11:59:57;;;;;;;3.15;2.85;;;;;;;;;;5069966;28;20741;-67
2023/05/08 12:02:35;;;;;;;3.30;3.00;;;;;;;;;;5076618;28;20410;-67
2023/05/08 12:05:02;;;;;;;3.40;3.00;;;;;;;;;;5078199;28;20427;-65
2023/05/08 12:07:30;;;;;;;3.38;3.08;;;;;;;;;;5083176;28;20467;-66
2023/05/08 12:09:58;;;;;;;3.88;2.88;;;;;;;;;;5075175;28;20475;-66
2023/05/08 12:12:36;;;;;;;3.00;2.70;;;;;;;;;;5077254;28;20434;-65
2023/05/08 12:15:06;;;;;;;3.50;3.03;;;;;;;;;;5081732;28;20410;-66
2023/05/08 12:17:33;;;;;;;3.38;3.08;;;;;;;;;;5081673;28;20473;-66
2023/05/08 12:20:10;;;;;;;4.50;3.22;;;;;;;;;;5074336;28;20911;-69
2023/05/08 12:22:37;;;;;;;4.10;3.50;;;;;;;;;;5077898;28;20416;-68
2023/05/08 12:25:06;;;;;;;5.10;3.20;;;;;;;;;;5078160;28;20422;-68
2023/05/08 12:27:33;;;;;;;4.25;3.33;;;;;;;;;;5080385;28;20426;-69
2023/05/08 12:30:00;;;;;;;4.50;3.50;;;;;;;;;;5070443;28;20415;-67
2023/05/08 12:32:27;;;;;;;3.92;3.00;;;;;;;;;;5083020;28;20904;-69
2023/05/08 12:34:54;;;;;;;3.90;3.00;;;;;;;;;;5080347;28;20423;-69
2023/05/08 12:37:24;;;;;;;4.45;3.00;;;;;;;;;;5079672;28;20422;-66
2023/05/08 12:39:51;;;;;;;4.00;3.10;;;;;;;;;;5077449;28;20411;-66
2023/05/08 12:42:20;;;;;;;5.63;3.33;;;;;;;;;;5080839;28;20414;-73
2023/05/08 12:44:51;;;;;;;4.18;3.10;;;;;;;;;;5076159;28;20411;-67
2023/05/08 12:47:19;;;;;;;4.57;2.97;;;;;;;;;;5069705;28;20454;-69
2023/05/08 12:49:47;;;;;;;3.37;3.07;;;;;;;;;;5082144;28;20587;-70
2023/05/08 12:52:15;;;;;;;3.92;3.03;;;;;;;;;;5083438;28;20445;-67
2023/05/08 12:54:47;;;;;;;4.07;3.20;;;;;;;;;;5077439;28;20416;-68
2023/05/08 12:57:15;;;;;;;4.18;3.13;;;;;;;;;;5080425;28;20419;-66
2023/05/08 12:59:44;;;;;;;3.90;3.20;;;;;;;;;;5081862;28;20471;-66
2023/05/08 13:02:15;;;;;;;3.63;3.10;;;;;;;;;;5078536;28;20429;-67
2023/05/08 13:04:42;;;;;;;4.60;3.35;;;;;;;;;;5081840;28;20471;-67
2023/05/08 13:07:10;;;;;;;4.00;3.40;;;;;;;;;;5078460;28;20429;-66
2023/05/08 13:09:37;;;;;;;3.78;3.30;;;;;;;;;;5078697;28;20430;-66
2023/05/08 13:12:05;;;;;;;4.50;3.67;;;;;;;;;;5080685;28;20407;-66
2023/05/08 13:14:32;;;;;;;4.72;4.25;;;;;;;;;;5079575;28;20423;-63
2023/05/08 13:17:00;;;;;;;5.03;3.83;;;;;;;;;;5075940;28;20416;-66
2023/05/08 13:19:27;;;;;;;5.07;4.13;;;;;;;;;;5078963;28;20487;-65
2023/05/08 13:21:54;;;;;;;4.70;4.20;;;;;;;;;;5078301;28;20425;-65
2023/05/08 13:24:21;;;;;;;8.70;4.50;;;;;;;;;;5070032;28;20825;-64
2023/05/08 13:26:49;;;;;;;5.95;4.20;;;;;;;;;;5075257;28;20423;-64
2023/05/08 13:29:16;;;;;;;5.47;4.13;;;;;;;;;;5070674;28;21163;-63
2023/05/08 13:31:43;;;;;;;4.70;4.03;;;;;;;;;;5075128;28;20464;-64
2023/05/08 13:34:11;;;;;;;5.50;4.63;;;;;;;;;;5071944;28;21075;-64
2023/05/08 13:36:38;;;;;;;6.40;4.70;;;;;;;;;;5071721;28;20565;-63
2023/05/08 13:39:05;;;;;;;5.90;4.90;;;;;;;;;;5080463;28;20414;-64
2023/05/08 13:41:32;;;;;;;5.57;4.37;;;;;;;;;;5076652;28;20558;-64
2023/05/08 13:43:59;;;;;;;6.63;5.32;;;;;;;;;;5074872;28;20416;-64
2023/05/08 13:46:27;;;;;;;6.18;5.57;;;;;;;;;;5072257;28;20469;-62
2023/05/08 13:48:53;;;;;;;6.32;5.10;;;;;;;;;;5075551;28;20886;-65
2023/05/08 13:51:22;;;;;;;7.25;5.40;;;;;;;;;;5079019;28;20763;-63
2023/05/08 13:53:49;;;;;;;6.70;5.40;;;;;;;;;;5072241;28;20422;-64
2023/05/08 13:56:16;;;;;;;7.00;5.68;;;;;;;;;;5078793;28;20743;-64
2023/05/08 13:58:43;;;;;;;7.38;5.57;;;;;;;;;;5077181;28;20494;-64
2023/05/08 14:01:11;;;;;;;7.05;5.40;;;;;;;;;;5073456;28;20417;-65
2023/05/08 14:03:38;;;;;;;7.57;5.57;;;;;;;;;;5072247;28;20416;-64
2023/05/08 14:06:05;;;;;;;6.00;5.40;;;;;;;;;;5070161;28;20425;-64
2023/05/08 14:08:33;;;;;;;6.55;5.78;;;;;;;;;;5077133;28;20418;-64
2023/05/08 14:11:00;;;;;;;9.10;5.88;;;;;;;;;;5072439;28;20472;-64
2023/05/08 14:13:27;;;;;;;8.10;6.00;;;;;;;;;;5079062;28;20410;-64
2023/05/08 14:15:54;;;;;;;7.22;6.53;;;;;;;;;;5069480;28;20424;-64
2023/05/08 14:18:21;;;;;;;7.20;6.30;;;;;;;;;;5074301;28;20443;-64
2023/05/08 14:20:48;;;;;;;6.70;6.03;;;;;;;;;;5075685;28;20438;-64
2023/05/08 14:23:15;;;;;;;7.10;6.40;;;;;;;;;;5071063;28;20419;-68
2023/05/08 14:25:43;;;;;;;6.70;5.93;;;;;;;;;;5078572;28;20431;-69
2023/05/08 14:28:10;;;;;;;6.15;5.55;;;;;;;;;;5083612;28;20482;-66
2023/05/08 14:30:37;;;;;;;7.80;6.13;;;;;;;;;;5084119;28;20953;-66
2023/05/08 14:33:04;;;;;;;7.70;6.05;;;;;;;;;;5071589;28;20827;-69
2023/05/08 14:35:32;;;;;;;7.07;6.38;;;;;;;;;;5079786;28;20445;-66
2023/05/08 14:38:04;;;;;;;6.85;6.15;;;;;;;;;;5081004;28;20493;-68